Aeroporto :
LOGIN :

Iscrizione | Disclaimer

   EN    FR    IT 

 










Sommario :    VFR   VFR Marginale   IFR   IFR Intensivo   IFR Molto Intensivo
Visibilità : 
Base nubi : 
>= 8 km
>= 3000ft
5 / 8 km
1000 / 3000 ft
1500m / 5 km
500 / 1000 ft
800 / 1500m
200 / 500 ft
< 800m
< 200 ft
Simboli :   Temporali  Nebbia  Neve Forte  Precipitazioni Forti  Vento > 20 kt
SIGMETs :   Varie  Temporali  Ghiacco  Turbolenza  Onda orograficha  Ceneri Vulcaniche






- Altitudine del aeroporto : 125 ft
- Codice IATA : MGL


EDLN - Mönchengladbach

ULTIMO METAR :
  • 071450Z 31011KT CAVOK 25/08 Q1022

METARs OBSOLETI :
  • 071420Z 33007KT CAVOK 25/07 Q1023
  • 071350Z VRB04KT CAVOK 25/07 Q1023
  • 071320Z 31009KT 270V350 CAVOK 25/08 Q1023
  • 071250Z 31007KT 260V040 CAVOK 24/07 Q1023
  • 071220Z 34008KT 270V020 CAVOK 24/07 Q1024

TAF TAF EDLN
Valido dal 07 a 15 ore il 08 a 00 ore UTC


071400Z 0715/0724 35006KT CAVOK



MetMap, La meteo Aeronautica in un colpo d'occhio ! - Copyright ORBIFLY Dicembre 2007 - Disclaimer

ORBIFLY MET'MAP TEAM :

Programmazione e sviluppo : Alexandra Zaïnal
Concezione : Baudouin d'Aumeries
Supporto tecnico e logistico : Manuel Goepfert
Aiuto : Marc-Olivier Méhu
Aiuto per la traduzione : Arnaldo La Scala




FONTI E CREDITI :

   NOAA